航空気象通報

ウインドサーファーのための航空気象通報による風予報です。

9/24-9/26の航空気象通報

2017年09月24日 23時53分55秒 | TAF
羽田空港
TAF RJTT 241105Z 2412/2518 12006KT 9999 FEW020 SCT030
BECMG 2419/2421 36006KT
BECMG 2500/2503 10005KT
BECMG 2503/2506 18010KT
BECMG 2512/2515 08016KT
TEMPO 2512/2515 3000 SHRA BR FEW006 BKN008
日本時間24日21時-25日04時:120度から6ノットの風
04-06時:風が変化
06-09時:360度から6ノットの風
09-12時:風が変化
12時:100度から5ノットの風
12-15時:風が変化
15-21時:180度から10ノットの風
21-24時:風が変化
26日00-03時:080度から16ノットの風

但し、25日21-24時の間:時々

静岡空港
TAF RJNS 241112Z 2412/2518 34004KT 9999 FEW006 BKN012
TEMPO 2412/2421 FEW005 BKN008
BECMG 2500/2503 14010KT
BECMG 2509/2512 30004KT
日本時間24日21時-25日09時:340度から4ノットの風
09-12時:風が変化
12-18時:140度から10ノットの風
18-21時:風が変化
21時-26日03時:300度から4ノットの風

但し、24日12-15時の間:時々

福岡空港
TAF RJFF 241107Z 2412/2518 14005KT 9999 FEW025
BECMG 2500/2503 33008KT
BECMG 2509/2512 15006KT
日本時間24日21時-25日09時:140度から5ノットの風
09-12時:風が変化
12-18時:330度から8ノットの風
18-21時:風が変化
21時-26日03時:150度から6ノットの風


那覇空港
TAF ROAH 241107Z 2412/2518 26005KT 9999 FEW015 SCT030
TEMPO 2413/2417 4000 SHRA FEW010 BKN015 FEW020CB
BECMG 2500/2503 30008KT
BECMG 2512/2515 25005KT
日本時間24日21時-25日09時:260度から5ノットの風
09-12時:風が変化
12-21時:300度から8ノットの風
21-24時:風が変化
26日00-03時:250度から5ノットの風

但し、24日22時-25日02時の間:時々

石垣空港
TAF ROIG 241109Z 2412/2518 19005KT 9999 FEW015 SCT025
BECMG 2506/2509 10005KT
BECMG 2515/2518 14005KT
日本時間24日21時-25日15時:190度から5ノットの風
15-18時:風が変化
18-24時:100度から5ノットの風
26日00-03時:風が変化
03時:140度から5ノットの風


マウイのカフルイ空港
PHOG 241122Z 2412/2512 03006KT P6SM FEW030 SCT050
FM242000 04015KT P6SM FEW030 SCT050
FM250500 04008KT P6SM FEW030 SCT050 AMD LTD TO VIS AND WIND TIL 241600
ハワイ時間24日02-10時:030度から6ノットの風
10-19時:040度から15ノットの風
19時-25日02時:040度から8ノットの風


サイパン空港
TAF PGSN 241120Z 2412/2512 10006KT P6SM VCSH SCT020 BKN110
マリアナ時間24日22時-25日22時:100度から6ノットの風
ジャンル:
お天気
コメント   この記事についてブログを書く
この記事をはてなブックマークに追加
« 9/23-9/25の航空気象通報 | トップ | 9/25-9/27の航空気象通報 »
最近の画像もっと見る

コメントを投稿

ブログ作成者から承認されるまでコメントは反映されません。

TAF」カテゴリの最新記事

トラックバック

この記事のトラックバック  Ping-URL
ブログ作成者から承認されるまでトラックバックは反映されません。
  • 30日以上前の記事に対するトラックバックは受け取らないよう設定されております。
  • 送信元の記事内容が半角英数のみのトラックバックは受け取らないよう設定されております。
  • このブログへのリンクがない記事からのトラックバックは受け取らないよう設定されております。
  • ※ブログ管理者のみ、編集画面で設定の変更が可能です。